Data for 05/01/2013

Time Sea-Level Adjusted Pressure Absolute Pressure Temperature Relative Humidity Dew Point   
(mb) (inHg) (mb) (inHg) (C) (F) (%) (C) (F)
00:05 1023 30.21 853 25.19 -3.2 26.2 87 -5.1 22.8
00:10 1023 30.21 853 25.19 -3.3 26.1 88 -5.1 22.9
00:15 1023 30.21 853 25.19 -3.4 25.9 89 -5 23
00:20 1024 30.24 853 25.19 -3.5 25.8 89 -5 23
00:25 1024 30.24 853 25.19 -3.4 25.8 88 -5.2 22.6
00:30 1024 30.24 853 25.19 -3.4 25.9 88 -5.2 22.7
00:35 1024 30.24 853 25.19 -3.4 26 87 -5.3 22.5
00:40 1024 30.24 853 25.19 -3.4 26 87 -5.3 22.5
00:45 1024 30.24 853 25.19 -3.4 25.9 87 -5.2 22.7
00:50 1024 30.24 853 25.19 -3.4 25.8 87 -5.3 22.4
00:55 1024 30.24 853 25.19 -3.4 25.9 85 -5.5 22.1
01:00 1024 30.24 853 25.19 -3.4 25.9 86 -5.5 22.1
01:05 1024 30.24 853 25.19 -3.5 25.8 86 -5.5 22
01:10 1024 30.24 853 25.19 -3.5 25.7 85 -5.7 21.8
01:15 1024 30.24 853 25.19 -3.5 25.7 85 -5.7 21.7
01:20 1024 30.24 853 25.19 -3.4 25.8 84 -5.8 21.6
01:25 1024 30.24 853 25.19 -3.4 25.8 83 -6 21.3
01:30 1024 30.24 853 25.19 -3.4 25.8 82 -6 21.2
01:35 1024 30.24 853 25.19 -3.5 25.8 83 -6 21.2
01:40 1024 30.24 853 25.19 -3.5 25.7 82 -6.2 20.8
01:45 1024 30.24 853 25.19 -3.5 25.8 82 -6.1 21
01:50 1024 30.24 853 25.19 -3.5 25.7 83 -6 21.2
01:55 1024 30.24 853 25.19 -3.6 25.5 83 -6.1 20.9
02:00 1024 30.24 853 25.19 -3.6 25.6 83 -6.1 21
02:05 1024 30.24 853 25.19 -3.6 25.5 83 -6.1 21
02:10 1024 30.24 853 25.19 -3.6 25.5 83 -6.1 21
02:15 1024 30.24 853 25.19 -3.6 25.5 84 -6 21.2
02:20 1024 30.24 854 25.22 -3.6 25.5 83 -6.2 20.9
02:25 1024 30.24 854 25.22 -3.6 25.5 84 -6 21.3
02:30 1024 30.24 854 25.22 -3.6 25.5 83 -6.1 21.1
02:35 1024 30.24 854 25.22 -3.7 25.4 84 -6 21.2
02:40 1025 30.27 854 25.22 -3.7 25.4 84 -6 21.1
02:45 1025 30.27 854 25.22 -3.7 25.4 84 -6 21.2
02:50 1025 30.27 854 25.22 -3.6 25.4 85 -5.8 21.5
02:55 1025 30.27 854 25.22 -3.6 25.5 83 -6 21.1
03:00 1025 30.27 854 25.22 -3.6 25.5 83 -6.1 21
03:05 1025 30.27 854 25.22 -3.6 25.6 83 -6 21.2
03:10 1025 30.27 854 25.22 -3.6 25.5 84 -6 21.2
03:15 1025 30.27 854 25.22 -3.6 25.5 84 -6 21.2
03:20 1025 30.27 854 25.22 -3.6 25.5 84 -6 21.2
03:25 1025 30.27 854 25.22 -3.6 25.6 84 -5.9 21.3
03:30 1025 30.27 854 25.22 -3.5 25.7 83 -6 21.2
03:35 1025 30.27 854 25.22 -3.5 25.7 83 -5.9 21.3
03:40 1025 30.27 855 25.25 -3.5 25.7 82 -6.1 21.1
03:45 1025 30.27 855 25.25 -3.5 25.7 84 -5.7 21.7
03:50 1025 30.27 855 25.25 -3.5 25.7 84 -5.8 21.6
03:55 1025 30.27 855 25.25 -3.5 25.7 85 -5.7 21.8
04:00 1026 30.3 855 25.25 -3.5 25.7 85 -5.6 21.8
04:05 1026 30.3 855 25.25 -3.6 25.6 87 -5.5 22.1
04:10 1026 30.3 855 25.25 -3.6 25.6 87 -5.4 22.2
04:15 1026 30.3 855 25.25 -3.5 25.7 87 -5.4 22.2
04:20 1026 30.3 855 25.25 -3.5 25.8 88 -5.2 22.6
04:25 1026 30.3 855 25.25 -3.4 25.8 88 -5.1 22.9
04:30 1026 30.3 855 25.25 -3.4 25.9 89 -5 23
04:35 1026 30.3 855 25.25 -3.4 25.9 89 -5 23
04:40 1026 30.3 855 25.25 -3.4 25.9 89 -4.9 23.2
04:45 1026 30.3 855 25.25 -3.3 26.1 90 -4.8 23.4
04:50 1026 30.3 855 25.25 -3.2 26.3 90 -4.7 23.6
04:55 1026 30.3 856 25.28 -3.1 26.3 90 -4.6 23.7
05:00 1026 30.3 856 25.28 -3.1 26.4 89 -4.7 23.5
05:05 1026 30.3 856 25.28 -3.4 25.9 89 -5 23.1
05:10 1027 30.33 856 25.28 -3.5 25.6 90 -5 23
05:15 1027 30.33 856 25.28 -3.6 25.5 89 -5.1 22.8
05:20 1027 30.33 856 25.28 -3.6 25.5 89 -5.2 22.7
05:25 1027 30.33 856 25.28 -3.6 25.4 88 -5.3 22.4
05:30 1027 30.33 856 25.28 -3.6 25.5 87 -5.5 22
05:35 1027 30.33 856 25.28 -3.5 25.7 86 -5.6 21.9
05:40 1027 30.33 856 25.28 -3.3 26 87 -5.2 22.7
05:45 1027 30.33 856 25.28 -3.2 26.3 87 -5 23.1
05:50 1027 30.33 857 25.31 -2.9 26.7 85 -5.1 22.9
05:55 1027 30.33 857 25.31 -2.7 27.1 86 -4.7 23.5
06:00 1027 30.33 857 25.31 -2.9 26.8 88 -4.6 23.6
06:05 1027 30.33 857 25.31 -3.1 26.3 89 -4.7 23.5
06:10 1028 30.36 857 25.31 -3.1 26.5 88 -4.7 23.5
06:15 1028 30.36 857 25.31 -3 26.7 87 -4.8 23.4
06:20 1028 30.36 857 25.31 -2.9 26.8 87 -4.8 23.4
06:25 1028 30.36 857 25.31 -3 26.6 88 -4.7 23.5
06:30 1028 30.36 857 25.31 -2.8 26.9 87 -4.7 23.5
06:35 1028 30.36 857 25.31 -2.7 27.2 87 -4.6 23.7
06:40 1028 30.36 857 25.31 -2.6 27.3 86 -4.6 23.7
06:45 1028 30.36 857 25.31 -2.7 27.1 87 -4.5 23.8
06:50 1028 30.36 858 25.34 -2.6 27.4 86 -4.6 23.8
06:55 1028 30.36 858 25.34 -2.3 27.8 84 -4.6 23.7
07:00 1029 30.39 858 25.34 -2.2 28 83 -4.7 23.6
07:05 1029 30.39 858 25.34 -2.3 27.9 84 -4.7 23.6
07:10 1029 30.39 858 25.34 -2.1 28.2 83 -4.5 23.8
07:15 1029 30.39 858 25.34 -2.3 27.9 84 -4.7 23.6
07:20 1029 30.39 858 25.34 -2.3 27.9 84 -4.6 23.7
07:25 1029 30.39 858 25.34 -2.1 28.3 83 -4.5 23.9
07:30 1029 30.39 858 25.34 -1.9 28.5 83 -4.5 24
07:35 1029 30.39 858 25.34 -1.8 28.7 83 -4.3 24.3
07:40 1029 30.39 858 25.34 -1.7 28.9 82 -4.3 24.2
07:45 1029 30.39 858 25.34 -1.5 29.2 82 -4.3 24.3
07:50 1029 30.39 858 25.34 -1.4 29.4 82 -4.1 24.6
07:55 1029 30.39 858 25.34 -1.4 29.5 82 -4 24.7
08:00 1029 30.39 859 25.37 -1.5 29.3 83 -4.1 24.6
08:05 1029 30.39 859 25.37 -1.6 29.1 81 -4.4 24
08:10 1029 30.39 859 25.37 -1.7 28.9 84 -4.1 24.6
08:15 1029 30.39 859 25.37 -1.2 29.9 81 -3.9 24.9
08:20 1030 30.42 859 25.37 -1 30.2 79 -4.3 24.3
08:25 1030 30.42 859 25.37 -1.2 29.8 79 -4.5 23.9
08:30 1030 30.42 859 25.37 -0.8 30.5 75 -4.7 23.6
08:35 1030 30.42 859 25.37 0.2 32.3 72 -4.2 24.5
08:40 1030 30.42 859 25.37 0 32 73 -4.2 24.4
08:45 1030 30.42 859 25.37 0.7 33.3 70 -4.2 24.5
08:50 1030 30.42 859 25.37 0.5 33 70 -4.3 24.3
08:55 1030 30.42 859 25.37 -0.1 31.7 73 -4.4 24.2
09:00 1030 30.42 859 25.37 -0.3 31.4 71 -5 23
09:05 1030 30.42 859 25.37 -0.1 31.9 72 -4.6 23.7
09:10 1030 30.42 859 25.37 1.4 34.5 66 -4.4 24.1
09:15 1030 30.42 859 25.37 1.5 34.7 66 -4.1 24.7
09:20 1030 30.42 859 25.37 0.8 33.4 68 -4.4 24
09:25 1030 30.42 859 25.37 0.1 32.1 67 -5.4 22.3
09:30 1030 30.42 859 25.37 0.9 33.6 63 -5.3 22.4
09:35 1030 30.42 859 25.37 1.5 34.7 64 -4.6 23.7
09:40 1030 30.42 859 25.37 2.1 35.7 64 -4 24.7
09:45 1030 30.42 859 25.37 0.4 32.7 69 -4.6 23.7
09:50 1030 30.42 859 25.37 -0.1 31.8 68 -5.4 22.3
09:55 1030 30.42 859 25.37 0.9 33.5 62 -5.6 22
10:00 1030 30.42 859 25.37 2.1 35.7 58 -5.3 22.5
10:05 1030 30.42 859 25.37 2.4 36.4 56 -5.4 22.3
10:10 1030 30.42 859 25.37 2.5 36.6 57 -5.1 22.8
10:15 1030 30.42 859 25.37 2.5 36.4 55 -5.8 21.6
10:20 1030 30.42 859 25.37 2.5 36.5 57 -5.1 22.8
10:25 1030 30.42 860 25.4 2.8 37 56 -5.2 22.7
10:30 1030 30.42 860 25.4 2.7 36.9 54 -5.7 21.8
10:35 1030 30.42 860 25.4 2.1 35.8 56 -5.8 21.5
10:40 1030 30.42 860 25.4 2.4 36.3 52 -6.5 20.4
10:45 1030 30.42 860 25.4 2 35.7 50 -7.3 18.9
10:50 1030 30.42 860 25.4 3.5 38.3 43 -7.9 17.7
10:55 1031 30.45 860 25.4 3.2 37.7 47 -6.9 19.5
11:00 1031 30.45 860 25.4 2.6 36.7 51 -6.6 20.1
11:05 1030 30.42 860 25.4 2.7 36.9 49 -6.9 19.5
11:10 1030 30.42 860 25.4 2 35.5 52 -6.8 19.8
11:15 1030 30.42 860 25.4 2 35.7 47 -8.1 17.5
11:20 1030 30.42 860 25.4 2.7 36.9 46 -7.6 18.3
11:25 1030 30.42 860 25.4 3.3 37.9 55 -4.8 23.4
11:30 1030 30.42 860 25.4 3 37.4 51 -6.2 20.8
11:35 1030 30.42 860 25.4 2.4 36.4 49 -7.2 19
11:40 1030 30.42 860 25.4 3.6 38.5 45 -7.1 19.1
11:45 1030 30.42 860 25.4 3.6 38.5 46 -7.1 19.2
11:50 1030 30.42 860 25.4 3.6 38.5 44 -7.5 18.5
11:55 1030 30.42 860 25.4 3.5 38.2 40 -9 15.8
12:00 1030 30.42 860 25.4 2.9 37.2 41 -9.1 15.6
12:05 1031 30.45 860 25.4 2.7 36.8 46 -7.8 18
12:10 1031 30.45 860 25.4 3.2 37.8 49 -6.5 20.3
12:15 1031 30.45 860 25.4 4.3 39.8 42 -7.4 18.6
12:20 1031 30.45 860 25.4 4.1 39.3 43 -7.4 18.7
12:25 1031 30.45 860 25.4 3.4 38.1 47 -7 19.4
12:30 1031 30.45 860 25.4 4.1 39.4 38 -9 15.8
12:35 1031 30.45 860 25.4 3.9 39.1 43 -7.7 18.2
12:40 1031 30.45 860 25.4 4.5 40 37 -9.1 15.7
12:45 1031 30.45 860 25.4 4.7 40.4 36 -9.2 15.5
12:50 1031 30.45 860 25.4 4.6 40.2 36 -9.3 15.2
12:55 1031 30.45 860 25.4 4.4 39.9 34 -10.3 13.5
13:00 1031 30.45 860 25.4 4.5 40.1 36 -9.1 15.6
13:05 1031 30.45 860 25.4 5.6 42.1 32 -9.9 14.2
13:10 1031 30.45 860 25.4 6 42.8 30 -10.3 13.4
13:15 1031 30.45 860 25.4 5 41 33 -10 14
13:20 1031 30.45 860 25.4 4.9 40.8 33 -10 13.9
13:25 1031 30.45 860 25.4 5.5 42 34 -9.1 15.6
13:30 1031 30.45 860 25.4 6 42.9 29 -10.7 12.7
13:35 1031 30.45 860 25.4 5.9 42.6 30 -10.2 13.6
13:40 1031 30.45 860 25.4 6.1 43 30 -10.1 13.8
13:45 1031 30.45 860 25.4 6.1 43 32 -9.6 14.8
13:50 1031 30.45 860 25.4 7 44.5 27 -10.8 12.6
13:55 1031 30.45 860 25.4 5.9 42.7 30 -10.4 13.2
14:00 1030 30.42 860 25.4 6 42.8 28 -11.1 12.1
14:05 1030 30.42 860 25.4 6 42.8 27 -11.8 10.7
14:10 1031 30.45 860 25.4 5.3 41.6 29 -11.2 11.8
14:15 1031 30.45 860 25.4 5.2 41.4 30 -11.2 11.8
14:20 1030 30.42 860 25.4 5.1 41.2 28 -11.9 10.6
14:25 1030 30.42 860 25.4 4.8 40.7 29 -11.8 10.8
14:30 1030 30.42 860 25.4 4.3 39.8 30 -11.6 11
14:35 1030 30.42 860 25.4 4.4 39.9 31 -11.3 11.6
14:40 1030 30.42 860 25.4 4.7 40.5 30 -11.4 11.5
14:45 1030 30.42 860 25.4 5.7 42.3 28 -11.6 11.2
14:50 1030 30.42 860 25.4 6.3 43.3 26 -11.7 10.9
14:55 1030 30.42 860 25.4 6.1 43 28 -11.1 12
15:00 1030 30.42 860 25.4 5.8 42.5 28 -11.5 11.3
15:05 1030 30.42 860 25.4 6.3 43.4 27 -11.5 11.4
15:10 1030 30.42 860 25.4 5.7 42.2 29 -10.8 12.5
15:15 1030 30.42 860 25.4 5.1 41.2 30 -11.3 11.7
15:20 1030 30.42 860 25.4 5 41 31 -10.7 12.7
15:25 1030 30.42 860 25.4 4.9 40.7 29 -11.7 11
15:30 1031 30.45 860 25.4 6.2 43.2 27 -11.6 11.1
15:35 1030 30.42 860 25.4 6.8 44.2 29 -10.2 13.6
15:40 1031 30.45 860 25.4 6.4 43.5 28 -10.7 12.7
15:45 1031 30.45 860 25.4 6.7 44.1 28 -10.5 13
15:50 1031 30.45 860 25.4 7.1 44.8 26 -10.9 12.3
15:55 1031 30.45 860 25.4 7.1 44.8 26 -11 12.1
16:00 1031 30.45 860 25.4 7.1 44.8 26 -11.1 12
16:05 1031 30.45 860 25.4 7.2 45 27 -10.4 13.3
16:10 1031 30.45 860 25.4 7.2 45 26 -11.3 11.7
16:15 1031 30.45 860 25.4 7.3 45.2 25 -11.3 11.6
16:20 1031 30.45 860 25.4 6.9 44.3 26 -11.3 11.6
16:25 1031 30.45 860 25.4 6.7 44 26 -11.4 11.5
16:30 1031 30.45 860 25.4 6.9 44.4 26 -11.3 11.6
16:35 1031 30.45 860 25.4 6.6 43.9 27 -11.2 11.8
16:40 1031 30.45 860 25.4 7.5 45.4 24 -11.7 10.9
16:45 1031 30.45 860 25.4 7.2 45 21 -13.5 7.7
16:50 1031 30.45 860 25.4 7.4 45.3 19 -15.1 4.8
16:55 1031 30.45 860 25.4 7.6 45.7 19 -14.6 5.8
17:00 1031 30.45 860 25.4 7.6 45.7 19 -14.9 5.2
17:05 1031 30.45 860 25.4 7.5 45.5 17 -16 3.3
17:10 1031 30.45 860 25.4 7.5 45.4 18 -15.5 4.1
17:15 1031 30.45 860 25.4 7.5 45.6 18 -15.6 3.9
17:20 1031 30.45 860 25.4 7.4 45.2 18 -15.8 3.6
17:25 1031 30.45 860 25.4 7.5 45.5 18 -15.5 4.2
17:30 1031 30.45 860 25.4 7.6 45.8 17 -16.2 2.8
17:35 1031 30.45 860 25.4 7.6 45.7 18 -15.5 4.1
17:40 1031 30.45 860 25.4 7.8 46 18 -15.3 4.5
17:45 1031 30.45 860 25.4 7.6 45.6 17 -16.1 3.1
17:50 1031 30.45 860 25.4 7 44.6 18 -16 3.2
17:55 1031 30.45 860 25.4 7.1 44.7 18 -16 3.1
18:00 1031 30.45 860 25.4 7 44.5 18 -15.6 3.9
18:05 1031 30.45 860 25.4 6.9 44.3 18 -15.8 3.5
18:10 1031 30.45 860 25.4 6.6 44 19 -15.3 4.5
18:15 1031 30.45 860 25.4 6.5 43.8 20 -15.2 4.6
18:20 1031 30.45 860 25.4 6.4 43.6 20 -14.8 5.3
18:25 1031 30.45 860 25.4 6.5 43.6 20 -14.9 5.3
18:30 1031 30.45 860 25.4 6.3 43.4 20 -14.8 5.3
18:35 1031 30.45 860 25.4 6.3 43.3 21 -14.6 5.8
18:40 1031 30.45 861 25.43 6 42.9 22 -14.4 6.1
18:45 1031 30.45 861 25.43 6 42.8 22 -14.3 6.2
18:50 1031 30.45 861 25.43 5.9 42.7 22 -14.1 6.7
18:55 1031 30.45 861 25.43 5.8 42.4 22 -14.5 5.9
19:00 1031 30.45 861 25.43 5.7 42.3 22 -14.3 6.2
19:05 1032 30.47 861 25.43 5.7 42.2 22 -14.2 6.4
19:10 1032 30.47 861 25.43 5.6 42 24 -13.7 7.3
19:15 1032 30.47 861 25.43 5.4 41.7 25 -13.4 7.9
19:20 1032 30.47 861 25.43 5.4 41.6 26 -12.8 9
19:25 1032 30.47 861 25.43 5.1 41.2 27 -12.5 9.5
19:30 1032 30.47 861 25.43 4.9 40.7 28 -12.4 9.8
19:35 1032 30.47 861 25.43 4.7 40.5 28 -12.1 10.2
19:40 1032 30.47 861 25.43 4.5 40.1 29 -12.2 10.1
19:45 1032 30.47 861 25.43 4.4 39.9 31 -11.4 11.5
19:50 1032 30.47 861 25.43 4.3 39.7 32 -11.1 12.1
19:55 1032 30.47 861 25.43 4.3 39.7 30 -11.9 10.5
20:00 1032 30.47 861 25.43 4.1 39.5 30 -11.8 10.7
20:05 1032 30.47 862 25.45 4 39.2 31 -11.8 10.7
20:10 1032 30.47 862 25.45 3.9 39 31 -11.6 11.2
20:15 1032 30.47 862 25.45 3.8 38.9 32 -11.5 11.2
20:20 1033 30.5 862 25.45 3.9 38.9 32 -11.4 11.5
20:25 1033 30.5 862 25.45 3.8 38.8 32 -11.4 11.4
20:30 1033 30.5 862 25.45 3.7 38.7 33 -11 12.1
20:35 1033 30.5 862 25.45 3.7 38.7 32 -11.5 11.2
20:40 1033 30.5 862 25.45 3.6 38.6 32 -11.6 11.1
20:45 1033 30.5 862 25.45 3.6 38.4 32 -11.5 11.4
20:50 1033 30.5 862 25.45 3.5 38.2 33 -11.5 11.3
20:55 1033 30.5 862 25.45 3.1 37.6 37 -10.1 13.8
21:00 1033 30.5 862 25.45 2.2 36 41 -9.8 14.4
21:05 1033 30.5 862 25.45 1.7 35.1 42 -10 14
21:10 1033 30.5 862 25.45 1.2 34.2 44 -9.8 14.4
21:15 1033 30.5 862 25.45 1 33.8 45 -9.7 14.5
21:20 1033 30.5 862 25.45 0.9 33.7 44 -10.1 13.9
21:25 1033 30.5 863 25.48 1 33.8 44 -10.1 13.8
21:30 1033 30.5 863 25.48 1 33.8 44 -10 13.9
21:35 1034 30.53 863 25.48 1.1 33.9 43 -10.2 13.6
21:40 1034 30.53 863 25.48 1.1 34 44 -9.9 14.2
21:45 1033 30.5 863 25.48 0.9 33.7 44 -9.9 14.1
21:50 1033 30.5 863 25.48 0.9 33.5 45 -9.7 14.5
21:55 1034 30.53 863 25.48 0.9 33.6 46 -9.6 14.7
22:00 1034 30.53 863 25.48 0.7 33.3 47 -9.4 15
22:05 1034 30.53 863 25.48 0.6 33.1 47 -9.6 14.8
22:10 1034 30.53 863 25.48 0.5 32.9 46 -9.7 14.5
22:15 1034 30.53 863 25.48 0.3 32.6 47 -9.7 14.5
22:20 1034 30.53 863 25.48 0.3 32.6 47 -9.9 14.2
22:25 1034 30.53 863 25.48 0.4 32.8 46 -9.8 14.4
22:30 1034 30.53 863 25.48 0.4 32.7 46 -9.8 14.3
22:35 1034 30.53 863 25.48 0.2 32.3 47 -9.7 14.5
22:40 1034 30.53 863 25.48 -0.2 31.7 49 -9.8 14.4
22:45 1034 30.53 863 25.48 -0.3 31.5 48 -9.9 14.1
22:50 1034 30.53 863 25.48 -0.2 31.7 48 -10 14
22:55 1034 30.53 863 25.48 -0.1 31.9 48 -9.8 14.4
23:00 1034 30.53 863 25.48 -0.2 31.6 49 -9.7 14.5
23:05 1034 30.53 863 25.48 -0.3 31.4 50 -9.6 14.7
23:10 1034 30.53 863 25.48 -0.4 31.2 50 -9.7 14.5
23:15 1034 30.53 863 25.48 -0.4 31.2 50 -9.6 14.6
23:20 1034 30.53 863 25.48 -0.4 31.3 50 -9.7 14.6
23:25 1034 30.53 863 25.48 -0.4 31.3 50 -9.6 14.8
23:30 1034 30.53 863 25.48 -0.5 31.2 50 -9.6 14.7
23:35 1034 30.53 863 25.48 -0.6 31 50 -9.8 14.4
23:40 1034 30.53 863 25.48 -0.5 31.1 50 -9.7 14.5
23:45 1034 30.53 863 25.48 -0.4 31.2 50 -9.6 14.7
23:50 1034 30.53 863 25.48 -0.5 31 50 -9.6 14.7
23:55 1034 30.53 863 25.48 -0.8 30.6 52 -9.5 14.8
24:00 1034 30.53 863 25.48 -0.9 30.3 52 -9.7 14.6